Аэропорт: Гумрак. Волгоград

ICAO: URWW

METAR:
2019-07-24 01:00:00
URWW 240100Z 02002MPS 340V040 CAVOK 19/13 Q1011 R06/010070 TEMPO -TSRAGR BKN030CB
METAR:
2019-07-23 22:56:00
TAF URWW 232256Z 2400/2409 15003G08MPS 9999 SCT030CB TEMPO 2400/2409 12003G08MPS 5000 -SHRA PROB40 TEMPO 2400/2409 -TSRAGR